createdAt,value
2023-03-17T00:02:43.318Z,30.42
2023-03-17T00:06:43.336Z,30.32
2023-03-17T00:10:43.438Z,30.36
2023-03-17T00:14:43.547Z,30.52
2023-03-17T00:18:43.617Z,30.32
2023-03-17T00:22:43.763Z,30.29
2023-03-17T00:26:43.876Z,30.52
2023-03-17T00:30:43.977Z,30.52
2023-03-17T00:34:44.214Z,30.41
2023-03-17T00:38:44.217Z,30.27
2023-03-17T00:42:44.305Z,30.18
2023-03-17T00:46:44.598Z,30.20
2023-03-17T00:50:44.581Z,30.27
2023-03-17T00:54:44.700Z,30.26
2023-03-17T00:58:44.912Z,30.31
2023-03-17T01:02:45.009Z,30.25
2023-03-17T01:06:45.134Z,30.17
2023-03-17T01:10:45.298Z,30.24
2023-03-17T01:14:45.468Z,30.21
2023-03-17T01:18:45.709Z,30.16
2023-03-17T01:22:45.781Z,30.18
2023-03-17T01:26:45.920Z,30.20
2023-03-17T01:30:46.059Z,30.03
2023-03-17T01:34:46.210Z,29.97
2023-03-17T01:38:46.368Z,30.02
2023-03-17T01:42:46.527Z,29.97
2023-03-17T01:46:46.701Z,29.95
2023-03-17T01:50:46.864Z,29.93
2023-03-17T01:54:47.008Z,29.90
2023-03-17T01:58:47.180Z,29.84
2023-03-17T02:02:47.935Z,29.82
2023-03-17T02:06:57.409Z,29.85
2023-03-17T02:10:48.419Z,29.86
2023-03-17T02:14:47.441Z,29.78
2023-03-17T02:18:47.358Z,29.76
2023-03-17T02:22:47.446Z,29.71
2023-03-17T02:26:47.576Z,29.70
2023-03-17T02:30:47.762Z,29.80
2023-03-17T02:34:47.919Z,29.63
2023-03-17T02:38:48.006Z,29.70
2023-03-17T02:42:48.156Z,29.70
2023-03-17T02:46:48.303Z,29.69
2023-03-17T02:50:48.446Z,29.70
2023-03-17T02:54:48.612Z,29.54
2023-03-17T02:58:48.754Z,29.48
2023-03-17T03:02:48.957Z,29.55
2023-03-17T03:06:49.056Z,29.52
2023-03-17T03:10:49.190Z,28.99
2023-03-17T03:14:49.337Z,28.78
2023-03-17T03:18:49.538Z,28.67
2023-03-17T03:22:49.691Z,28.70
2023-03-17T03:26:49.830Z,28.65
2023-03-17T03:30:50.021Z,28.60
2023-03-17T03:34:50.125Z,28.51
2023-03-17T03:38:50.305Z,28.45
2023-03-17T03:42:50.474Z,28.62
2023-03-17T03:46:50.658Z,28.94
2023-03-17T03:50:50.808Z,28.99
2023-03-17T03:54:50.959Z,28.33
2023-03-17T03:58:51.130Z,28.11
2023-03-17T04:02:51.300Z,28.06
2023-03-17T04:06:51.466Z,28.19
2023-03-17T04:10:51.662Z,28.73
2023-03-17T04:14:51.854Z,28.78
2023-03-17T04:18:52.076Z,28.03
2023-03-17T04:22:52.210Z,27.85
2023-03-17T04:26:52.516Z,27.92
2023-03-17T04:30:52.579Z,28.22
2023-03-17T04:34:52.787Z,28.53
2023-03-17T04:38:52.995Z,28.63
2023-03-17T04:42:53.197Z,27.83
2023-03-17T04:46:53.393Z,27.61
2023-03-17T04:50:53.379Z,27.79
2023-03-17T04:54:53.343Z,27.60
2023-03-17T04:58:53.304Z,27.50
2023-03-17T05:02:53.271Z,27.28
2023-03-17T05:06:53.242Z,27.24
2023-03-17T05:10:53.225Z,27.49
2023-03-17T05:14:53.182Z,27.55
2023-03-17T05:18:53.119Z,27.77
2023-03-17T05:22:53.101Z,27.52
2023-03-17T05:26:53.103Z,27.61
2023-03-17T05:30:53.141Z,27.43
2023-03-17T05:34:53.043Z,27.46
2023-03-17T05:38:52.988Z,27.07
2023-03-17T05:42:52.969Z,27.33
2023-03-17T05:46:52.930Z,26.99
2023-03-17T05:50:52.884Z,26.93
2023-03-17T05:54:52.869Z,27.06
2023-03-17T05:58:52.827Z,27.34
2023-03-17T06:02:52.799Z,27.08
2023-03-17T06:06:52.766Z,27.23
2023-03-17T06:10:52.983Z,27.31
2023-03-17T06:14:52.966Z,27.54
2023-03-17T06:18:52.912Z,27.19
2023-03-17T06:23:03.826Z,27.14
2023-03-17T06:26:53.840Z,26.96
2023-03-17T06:30:52.838Z,26.82
2023-03-17T06:34:53.029Z,26.66
2023-03-17T06:38:53.479Z,26.97
2023-03-17T06:42:52.946Z,27.26
2023-03-17T06:46:52.956Z,27.31
2023-03-17T06:50:52.963Z,27.64
2023-03-17T06:54:52.991Z,28.04
2023-03-17T06:58:52.959Z,28.14
2023-03-17T07:02:52.981Z,28.15
2023-03-17T07:06:52.745Z,28.10
2023-03-17T07:10:52.999Z,28.02
2023-03-17T07:14:52.928Z,27.97
2023-03-17T07:18:52.856Z,27.92
2023-03-17T07:22:52.836Z,27.99
2023-03-17T07:26:52.870Z,28.04
2023-03-17T07:30:52.775Z,27.97
2023-03-17T07:34:52.717Z,28.03
2023-03-17T07:38:53.007Z,28.05
2023-03-17T07:42:52.666Z,27.99
2023-03-17T07:46:53.017Z,28.23
2023-03-17T07:50:52.995Z,28.68
2023-03-17T07:54:53.021Z,27.30
2023-03-17T07:58:52.671Z,29.92
2023-03-17T08:03:06.918Z,30.42
2023-03-17T08:06:53.814Z,31.49
2023-03-17T08:10:53.012Z,32.21
2023-03-17T08:14:52.750Z,32.74
2023-03-17T08:18:52.747Z,33.34
2023-03-17T08:22:53.022Z,33.94
2023-03-17T08:26:52.909Z,34.81
2023-03-17T08:30:53.028Z,35.15
2023-03-17T08:34:52.817Z,35.68
2023-03-17T08:38:52.782Z,36.16
2023-03-17T08:42:53.010Z,32.69
2023-03-17T08:46:53.032Z,34.12
2023-03-17T08:50:53.040Z,35.49
2023-03-17T08:54:52.626Z,35.59
2023-03-17T08:58:53.034Z,36.29
2023-03-17T09:02:52.590Z,36.70
2023-03-17T09:07:02.851Z,37.28
2023-03-17T09:10:53.508Z,37.87
2023-03-17T09:14:52.474Z,38.51
2023-03-17T09:18:52.544Z,38.32
2023-03-17T09:22:52.402Z,38.70
2023-03-17T09:26:52.395Z,39.02
2023-03-17T09:30:52.390Z,39.69
2023-03-17T09:34:52.377Z,40.23
2023-03-17T09:38:52.576Z,40.52
2023-03-17T09:42:52.521Z,40.13
2023-03-17T09:46:52.298Z,40.33
2023-03-17T09:50:52.570Z,40.26
2023-03-17T09:54:52.544Z,32.86
2023-03-17T09:58:52.532Z,36.56
2023-03-17T10:02:52.088Z,37.13
2023-03-17T10:06:52.071Z,37.55
2023-03-17T10:10:52.044Z,38.16
2023-03-17T10:14:51.995Z,39.14
2023-03-17T10:18:51.971Z,39.44
2023-03-17T10:22:52.149Z,39.93
2023-03-17T10:26:52.575Z,40.57
2023-03-17T10:30:52.483Z,41.12
2023-03-17T10:34:53.073Z,41.63
2023-03-17T10:38:52.669Z,42.08
2023-03-17T10:42:53.090Z,42.73
2023-03-17T10:46:53.107Z,42.22
2023-03-17T10:50:54.392Z,33.95
2023-03-17T10:54:52.995Z,31.15
2023-03-17T10:58:53.082Z,30.29
2023-03-17T11:02:53.564Z,32.08
2023-03-17T11:06:53.197Z,32.98
2023-03-17T11:10:53.571Z,33.27
2023-03-17T11:14:53.242Z,33.77
2023-03-17T11:18:53.225Z,33.92
2023-03-17T11:22:53.189Z,34.37
2023-03-17T11:26:53.180Z,34.64
2023-03-17T11:30:53.099Z,34.80
2023-03-17T11:34:53.103Z,35.02
2023-03-17T11:38:53.072Z,35.16
2023-03-17T11:42:53.751Z,34.77
2023-03-17T11:46:52.958Z,34.63
2023-03-17T11:50:53.111Z,33.96
2023-03-17T11:54:55.983Z,33.73
2023-03-17T11:58:53.121Z,33.59
2023-03-17T12:02:53.109Z,33.47
2023-03-17T12:06:53.389Z,33.37
2023-03-17T12:10:53.112Z,33.02
2023-03-17T12:14:52.994Z,33.17
2023-03-17T12:18:53.093Z,32.74
2023-03-17T12:22:52.952Z,32.85
2023-03-17T12:26:53.101Z,32.35
2023-03-17T12:30:53.129Z,32.24
2023-03-17T12:34:53.092Z,32.09
2023-03-17T12:38:52.804Z,32.21
2023-03-17T12:42:53.097Z,31.94
2023-03-17T12:46:52.728Z,33.01
2023-03-17T12:50:52.713Z,35.07
2023-03-17T12:54:52.665Z,35.38
2023-03-17T12:58:52.650Z,34.36
2023-03-17T13:02:52.623Z,34.14
2023-03-17T13:06:52.563Z,34.71
2023-03-17T13:10:52.528Z,34.56
2023-03-17T13:14:52.509Z,34.50
2023-03-17T13:18:52.469Z,34.17
2023-03-17T13:22:52.425Z,33.96
2023-03-17T13:26:54.813Z,33.79
2023-03-17T13:30:52.348Z,33.65
2023-03-17T13:34:52.325Z,33.47
2023-03-17T13:39:05.154Z,33.40
2023-03-17T13:42:53.298Z,33.24
2023-03-17T13:46:52.298Z,33.08
2023-03-17T13:50:52.228Z,32.97
2023-03-17T13:54:52.170Z,32.87
2023-03-17T13:58:52.148Z,32.80
2023-03-17T14:02:52.118Z,32.70
2023-03-17T14:06:52.100Z,32.63
2023-03-17T14:10:52.009Z,32.53
2023-03-17T14:14:51.994Z,32.50
2023-03-17T14:18:51.984Z,32.46
2023-03-17T14:22:51.941Z,32.42
2023-03-17T14:26:51.891Z,32.40
2023-03-17T14:30:51.864Z,32.43
2023-03-17T14:34:51.865Z,32.35
2023-03-17T14:38:51.800Z,32.26
2023-03-17T14:42:51.849Z,32.19
2023-03-17T14:46:51.995Z,32.12
2023-03-17T14:50:52.101Z,32.05
2023-03-17T14:54:52.209Z,31.92
2023-03-17T14:58:52.266Z,31.88
2023-03-17T15:02:52.355Z,31.79
2023-03-17T15:06:52.455Z,31.69
2023-03-17T15:10:52.558Z,31.61
2023-03-17T15:14:52.685Z,31.52
2023-03-17T15:18:52.764Z,31.39
2023-03-17T15:22:52.874Z,31.27
2023-03-17T15:26:53.012Z,31.18
2023-03-17T15:30:53.515Z,30.97
2023-03-17T15:34:53.105Z,30.56
2023-03-17T15:38:53.322Z,29.29
2023-03-17T15:42:53.343Z,28.56
2023-03-17T15:46:53.376Z,28.56
2023-03-17T15:50:53.353Z,29.26
2023-03-17T15:54:53.458Z,29.18
2023-03-17T15:58:53.588Z,28.46
2023-03-17T16:02:53.627Z,27.14
2023-03-17T16:06:53.623Z,28.11
2023-03-17T16:10:53.730Z,28.45
2023-03-17T16:14:53.770Z,26.57
2023-03-17T16:18:53.981Z,27.74
2023-03-17T16:22:54.106Z,28.30
2023-03-17T16:26:54.163Z,28.76
2023-03-17T16:30:54.407Z,29.63
2023-03-17T16:34:54.368Z,30.38
2023-03-17T16:38:54.484Z,30.84
2023-03-17T16:42:54.556Z,30.98
2023-03-17T16:46:54.780Z,31.09
2023-03-17T16:50:54.790Z,31.47
2023-03-17T16:54:54.945Z,31.69
2023-03-17T16:58:54.917Z,31.84
2023-03-17T17:02:54.971Z,31.95
2023-03-17T17:06:54.837Z,32.02
2023-03-17T17:10:54.860Z,32.09
2023-03-17T17:14:54.778Z,32.23
2023-03-17T17:18:54.806Z,32.25
2023-03-17T17:22:54.731Z,32.29
2023-03-17T17:26:54.676Z,32.35
2023-03-17T17:30:54.648Z,32.38
2023-03-17T17:34:54.662Z,32.40
2023-03-17T17:38:54.590Z,32.39
2023-03-17T17:42:54.568Z,32.44
2023-03-17T17:46:54.637Z,32.42
2023-03-17T17:50:54.517Z,32.49
2023-03-17T17:54:54.469Z,32.47
2023-03-17T17:58:54.420Z,32.44
2023-03-17T18:02:54.376Z,32.47
2023-03-17T18:06:54.349Z,32.41
2023-03-17T18:10:54.341Z,32.36
2023-03-17T18:14:54.296Z,32.45
2023-03-17T18:18:54.328Z,32.34
2023-03-17T18:22:54.430Z,32.30
2023-03-17T18:26:54.580Z,32.32
2023-03-17T18:30:54.771Z,32.32
2023-03-17T18:34:54.930Z,32.37
2023-03-17T18:38:55.137Z,32.24
2023-03-17T18:42:55.805Z,32.14
2023-03-17T18:46:55.500Z,32.09
2023-03-17T18:50:55.740Z,31.98
2023-03-17T18:54:55.921Z,32.00
2023-03-17T18:58:56.143Z,32.03
2023-03-17T19:02:56.109Z,31.91
2023-03-17T19:06:56.076Z,31.98
2023-03-17T19:10:56.031Z,31.95
2023-03-17T19:14:55.981Z,31.81
2023-03-17T19:18:55.964Z,31.83
2023-03-17T19:22:55.913Z,31.83
2023-03-17T19:26:55.904Z,31.80
2023-03-17T19:30:55.935Z,31.76
2023-03-17T19:34:55.826Z,31.71
2023-03-17T19:38:55.783Z,31.68
2023-03-17T19:42:55.868Z,31.70
2023-03-17T19:46:56.026Z,31.65
2023-03-17T19:50:56.106Z,31.67
2023-03-17T19:54:56.265Z,31.60
2023-03-17T19:58:56.415Z,31.54
2023-03-17T20:02:56.602Z,31.52
2023-03-17T20:06:56.775Z,31.51
2023-03-17T20:10:56.934Z,31.47
2023-03-17T20:14:57.512Z,31.42
2023-03-17T20:18:57.102Z,31.39
2023-03-17T20:22:57.107Z,31.36
2023-03-17T20:26:57.104Z,31.37
2023-03-17T20:30:57.130Z,31.36
2023-03-17T20:34:57.082Z,31.32
2023-03-17T20:38:57.083Z,31.31
2023-03-17T20:42:57.832Z,31.23
2023-03-17T20:46:57.084Z,31.23
2023-03-17T20:50:57.047Z,31.19
2023-03-17T20:54:57.055Z,31.16
2023-03-17T20:58:57.041Z,31.15
2023-03-17T21:02:57.070Z,31.13
2023-03-17T21:06:57.004Z,31.12
2023-03-17T21:10:57.018Z,31.13
2023-03-17T21:14:57.010Z,31.07
2023-03-17T21:18:57.039Z,31.05
2023-03-17T21:22:57.038Z,31.04
2023-03-17T21:26:57.056Z,30.98
2023-03-17T21:30:57.060Z,31.01
2023-03-17T21:34:57.110Z,31.00
2023-03-17T21:38:57.143Z,31.00
2023-03-17T21:42:57.167Z,31.00
2023-03-17T21:46:57.223Z,30.98
2023-03-17T21:50:57.281Z,30.96
2023-03-17T21:54:57.313Z,30.98
2023-03-17T21:58:57.411Z,30.95
2023-03-17T22:02:58.839Z,30.97
2023-03-17T22:06:57.408Z,30.93
2023-03-17T22:10:57.388Z,30.89
2023-03-17T22:14:57.381Z,30.90
2023-03-17T22:18:57.349Z,30.88
2023-03-17T22:22:57.306Z,30.92
2023-03-17T22:26:57.239Z,30.92
2023-03-17T22:30:57.242Z,30.89
2023-03-17T22:34:57.201Z,30.93
2023-03-17T22:38:57.168Z,30.88
2023-03-17T22:42:57.145Z,30.86
2023-03-17T22:46:57.094Z,30.86
2023-03-17T22:50:57.082Z,30.87
2023-03-17T22:54:57.040Z,30.85
2023-03-17T22:58:57.038Z,30.84
2023-03-17T23:02:56.959Z,30.83
2023-03-17T23:06:56.913Z,30.82
2023-03-17T23:10:56.890Z,30.83
2023-03-17T23:14:57.503Z,30.83
2023-03-17T23:18:56.828Z,30.82
2023-03-17T23:22:56.778Z,30.79
2023-03-17T23:26:56.759Z,30.79
2023-03-17T23:30:56.843Z,30.79
2023-03-17T23:34:56.927Z,30.80
2023-03-17T23:38:57.023Z,30.78
2023-03-17T23:42:57.091Z,30.79
2023-03-17T23:46:57.229Z,30.82
2023-03-17T23:50:57.376Z,30.80
2023-03-17T23:54:57.470Z,30.81
2023-03-17T23:58:57.593Z,30.80
